EHEH

Eindhoven Airport

Eindhoven, The Netherlands
METAR EHEH 100655Z AUTO 25007KT 220V290 9999 -UP FEW015CB SCT039 BKN049 04/03 Q1021 BLU 28008KT 9999 SCT030 SCT050 TEMPO FEW018CB BKN025
Observed Flight Rules
Dec-10 @ 06:55 UTC (26 minutes ago) Visual Flight Rules
Wind Visibility Clouds Conditions
250° at 7 knots 10,000+ meters
  • Few at 1,500' AGL
  • Scattered at 3,900' AGL
  • Broken at 4,900' AGL
  • Scattered at 3,000' AGL
  • Unknown precipitation
Temperatures Readings
Current 4°C / 39°F
Dewpoint 3°C / 37°F
Humidity 93%
Altimeter 30.15" Hg
Pressure 1021 hPa
Elevation 22
METAR EHEH 100655Z AUTO 25007KT 220V290 9999 -UP FEW015CB SCT039 BKN049 04/03 Q1021 BLU 28008KT 9999 SCT030 SCT050 TEMPO FEW018CB BKN025
Observed Flight Rules
Dec-10 @ 06:55 UTC
(26 minutes ago)
VFR
Wind Visibility
250° at 7 knots 10,000+ meters
Clouds
  • Few at 1,500' AGL
  • Scattered at 3,900' AGL
  • Broken at 4,900' AGL
  • Scattered at 3,000' AGL
Conditions
  • Unknown precipitation
Temperature Dewpoint
4°C / 39°F 3°C / 37°F
Humidity Altimeter Pressure
93% 30.15" Hg 1021 hPa